sensor_id;sensor_type;location;lat;lon;timestamp;P1;durP1;ratioP1;P2;durP2;ratioP2
51921;SDS011;37948;53.260;6.394;2022-07-23T00:00:29;6.82;;;4.00;;
51921;SDS011;37948;53.260;6.394;2022-07-23T00:02:55;4.18;;;3.50;;
51921;SDS011;37948;53.260;6.394;2022-07-23T00:05:21;5.90;;;3.80;;
51921;SDS011;37948;53.260;6.394;2022-07-23T00:07:46;4.75;;;2.95;;
51921;SDS011;37948;53.260;6.394;2022-07-23T00:10:12;4.38;;;3.97;;
51921;SDS011;37948;53.260;6.394;2022-07-23T00:12:38;3.88;;;3.15;;
51921;SDS011;37948;53.260;6.394;2022-07-23T00:15:04;6.88;;;3.60;;
51921;SDS011;37948;53.260;6.394;2022-07-23T00:17:31;4.88;;;3.63;;
51921;SDS011;37948;53.260;6.394;2022-07-23T00:19:57;5.80;;;4.13;;
51921;SDS011;37948;53.260;6.394;2022-07-23T00:22:22;6.25;;;3.58;;
51921;SDS011;37948;53.260;6.394;2022-07-23T00:24:48;4.07;;;3.67;;
51921;SDS011;37948;53.260;6.394;2022-07-23T00:27:14;3.72;;;3.40;;
51921;SDS011;37948;53.260;6.394;2022-07-23T00:29:39;7.38;;;3.28;;
51921;SDS011;37948;53.260;6.394;2022-07-23T00:32:05;5.65;;;4.07;;
51921;SDS011;37948;53.260;6.394;2022-07-23T00:34:31;5.13;;;3.47;;
51921;SDS011;37948;53.260;6.394;2022-07-23T00:36:56;6.15;;;3.88;;
51921;SDS011;37948;53.260;6.394;2022-07-23T00:39:22;5.60;;;3.45;;
51921;SDS011;37948;53.260;6.394;2022-07-23T00:41:48;7.53;;;3.58;;
51921;SDS011;37948;53.260;6.394;2022-07-23T00:44:25;7.45;;;3.47;;
51921;SDS011;37948;53.260;6.394;2022-07-23T00:46:53;4.63;;;3.72;;
51921;SDS011;37948;53.260;6.394;2022-07-23T00:49:21;5.25;;;3.60;;
51921;SDS011;37948;53.260;6.394;2022-07-23T00:51:48;5.15;;;3.85;;
51921;SDS011;37948;53.260;6.394;2022-07-23T00:54:15;6.68;;;3.55;;
51921;SDS011;37948;53.260;6.394;2022-07-23T00:56:45;8.57;;;4.07;;
51921;SDS011;37948;53.260;6.394;2022-07-23T00:59:12;6.80;;;4.13;;
51921;SDS011;37948;53.260;6.394;2022-07-23T01:01:38;5.40;;;3.70;;
51921;SDS011;37948;53.260;6.394;2022-07-23T01:04:05;8.68;;;3.72;;
51921;SDS011;37948;53.260;6.394;2022-07-23T01:06:34;7.32;;;3.53;;
51921;SDS011;37948;53.260;6.394;2022-07-23T01:09:03;4.47;;;3.53;;
51921;SDS011;37948;53.260;6.394;2022-07-23T01:11:31;6.65;;;3.42;;
51921;SDS011;37948;53.260;6.394;2022-07-23T01:13:58;4.25;;;3.85;;
51921;SDS011;37948;53.260;6.394;2022-07-23T01:16:24;5.78;;;3.20;;
51921;SDS011;37948;53.260;6.394;2022-07-23T01:18:49;3.75;;;3.33;;
51921;SDS011;37948;53.260;6.394;2022-07-23T01:21:15;4.05;;;3.75;;
51921;SDS011;37948;53.260;6.394;2022-07-23T01:23:43;3.63;;;3.30;;
51921;SDS011;37948;53.260;6.394;2022-07-23T01:26:09;4.03;;;3.60;;
51921;SDS011;37948;53.260;6.394;2022-07-23T01:28:34;5.90;;;3.85;;
51921;SDS011;37948;53.260;6.394;2022-07-23T01:31:00;4.78;;;3.92;;
51921;SDS011;37948;53.260;6.394;2022-07-23T01:33:26;5.10;;;4.20;;
51921;SDS011;37948;53.260;6.394;2022-07-23T01:35:51;4.53;;;3.65;;
51921;SDS011;37948;53.260;6.394;2022-07-23T01:38:17;8.60;;;3.65;;
51921;SDS011;37948;53.260;6.394;2022-07-23T01:40:43;5.43;;;3.50;;
51921;SDS011;37948;53.260;6.394;2022-07-23T01:43:08;7.78;;;3.90;;
51921;SDS011;37948;53.260;6.394;2022-07-23T01:45:34;6.40;;;3.78;;
51921;SDS011;37948;53.260;6.394;2022-07-23T01:47:59;8.45;;;4.28;;
51921;SDS011;37948;53.260;6.394;2022-07-23T01:50:25;6.00;;;3.47;;
51921;SDS011;37948;53.260;6.394;2022-07-23T01:52:50;5.45;;;3.65;;
51921;SDS011;37948;53.260;6.394;2022-07-23T01:55:16;5.85;;;3.60;;
51921;SDS011;37948;53.260;6.394;2022-07-23T01:57:41;8.38;;;3.80;;
51921;SDS011;37948;53.260;6.394;2022-07-23T02:00:07;5.05;;;4.07;;
51921;SDS011;37948;53.260;6.394;2022-07-23T02:02:33;7.95;;;3.55;;
51921;SDS011;37948;53.260;6.394;2022-07-23T02:04:59;5.65;;;3.92;;
51921;SDS011;37948;53.260;6.394;2022-07-23T02:07:24;6.88;;;4.57;;
51921;SDS011;37948;53.260;6.394;2022-07-23T02:09:50;4.18;;;3.78;;
51921;SDS011;37948;53.260;6.394;2022-07-23T02:12:15;7.07;;;3.80;;
51921;SDS011;37948;53.260;6.394;2022-07-23T02:14:41;8.50;;;3.83;;
51921;SDS011;37948;53.260;6.394;2022-07-23T02:17:06;6.47;;;3.78;;
51921;SDS011;37948;53.260;6.394;2022-07-23T02:19:32;10.52;;;3.70;;
51921;SDS011;37948;53.260;6.394;2022-07-23T02:21:57;7.25;;;3.83;;
51921;SDS011;37948;53.260;6.394;2022-07-23T02:24:23;9.55;;;4.00;;
51921;SDS011;37948;53.260;6.394;2022-07-23T02:26:49;6.07;;;4.05;;
51921;SDS011;37948;53.260;6.394;2022-07-23T02:29:14;7.57;;;4.38;;
51921;SDS011;37948;53.260;6.394;2022-07-23T02:31:40;6.38;;;3.58;;
51921;SDS011;37948;53.260;6.394;2022-07-23T02:34:05;7.47;;;4.32;;
51921;SDS011;37948;53.260;6.394;2022-07-23T02:36:32;7.18;;;4.35;;
51921;SDS011;37948;53.260;6.394;2022-07-23T02:38:57;5.10;;;4.00;;
51921;SDS011;37948;53.260;6.394;2022-07-23T02:41:23;5.07;;;4.18;;
51921;SDS011;37948;53.260;6.394;2022-07-23T02:43:49;18.55;;;4.53;;
51921;SDS011;37948;53.260;6.394;2022-07-23T02:46:14;6.90;;;4.22;;
51921;SDS011;37948;53.260;6.394;2022-07-23T02:48:40;7.72;;;4.15;;
51921;SDS011;37948;53.260;6.394;2022-07-23T02:51:05;6.78;;;4.00;;
51921;SDS011;37948;53.260;6.394;2022-07-23T02:53:31;6.47;;;4.00;;
51921;SDS011;37948;53.260;6.394;2022-07-23T02:55:56;5.00;;;4.15;;
51921;SDS011;37948;53.260;6.394;2022-07-23T02:58:22;7.72;;;5.28;;
51921;SDS011;37948;53.260;6.394;2022-07-23T03:00:48;5.30;;;4.43;;
51921;SDS011;37948;53.260;6.394;2022-07-23T03:03:13;4.90;;;4.25;;
51921;SDS011;37948;53.260;6.394;2022-07-23T03:05:39;6.13;;;4.70;;
51921;SDS011;37948;53.260;6.394;2022-07-23T03:08:05;7.38;;;4.93;;
51921;SDS011;37948;53.260;6.394;2022-07-23T03:10:30;5.68;;;4.57;;
51921;SDS011;37948;53.260;6.394;2022-07-23T03:12:56;7.15;;;4.85;;
51921;SDS011;37948;53.260;6.394;2022-07-23T03:15:21;9.82;;;4.88;;
51921;SDS011;37948;53.260;6.394;2022-07-23T03:17:47;5.18;;;4.68;;
51921;SDS011;37948;53.260;6.394;2022-07-23T03:20:12;9.32;;;5.40;;
51921;SDS011;37948;53.260;6.394;2022-07-23T03:22:38;7.05;;;5.60;;
51921;SDS011;37948;53.260;6.394;2022-07-23T03:25:04;6.00;;;5.00;;
51921;SDS011;37948;53.260;6.394;2022-07-23T03:27:30;7.40;;;4.70;;
51921;SDS011;37948;53.260;6.394;2022-07-23T03:29:56;5.22;;;4.72;;
51921;SDS011;37948;53.260;6.394;2022-07-23T03:32:23;6.82;;;5.30;;
51921;SDS011;37948;53.260;6.394;2022-07-23T03:34:49;7.55;;;4.70;;
51921;SDS011;37948;53.260;6.394;2022-07-23T03:37:16;7.97;;;4.57;;
51921;SDS011;37948;53.260;6.394;2022-07-23T03:39:42;8.82;;;4.82;;
51921;SDS011;37948;53.260;6.394;2022-07-23T03:42:08;8.68;;;5.47;;
51921;SDS011;37948;53.260;6.394;2022-07-23T03:44:34;9.38;;;4.88;;
51921;SDS011;37948;53.260;6.394;2022-07-23T03:47:01;4.78;;;4.22;;
51921;SDS011;37948;53.260;6.394;2022-07-23T03:49:27;4.85;;;4.20;;
51921;SDS011;37948;53.260;6.394;2022-07-23T03:51:53;11.55;;;4.88;;
51921;SDS011;37948;53.260;6.394;2022-07-23T03:54:18;8.65;;;5.55;;
51921;SDS011;37948;53.260;6.394;2022-07-23T03:56:44;13.68;;;5.30;;
51921;SDS011;37948;53.260;6.394;2022-07-23T03:59:09;6.97;;;5.07;;
51921;SDS011;37948;53.260;6.394;2022-07-23T04:01:35;8.30;;;5.13;;
51921;SDS011;37948;53.260;6.394;2022-07-23T04:04:01;12.57;;;6.03;;
51921;SDS011;37948;53.260;6.394;2022-07-23T04:06:27;9.43;;;4.43;;
51921;SDS011;37948;53.260;6.394;2022-07-23T04:08:53;6.15;;;4.60;;
51921;SDS011;37948;53.260;6.394;2022-07-23T04:11:19;8.52;;;4.35;;
51921;SDS011;37948;53.260;6.394;2022-07-23T04:13:44;6.43;;;4.45;;
51921;SDS011;37948;53.260;6.394;2022-07-23T04:16:10;8.60;;;4.78;;
51921;SDS011;37948;53.260;6.394;2022-07-23T04:18:36;9.98;;;4.28;;
51921;SDS011;37948;53.260;6.394;2022-07-23T04:21:01;9.60;;;4.53;;
51921;SDS011;37948;53.260;6.394;2022-07-23T04:23:27;7.75;;;4.50;;
51921;SDS011;37948;53.260;6.394;2022-07-23T04:25:53;5.70;;;4.35;;
51921;SDS011;37948;53.260;6.394;2022-07-23T04:28:18;8.50;;;4.57;;
51921;SDS011;37948;53.260;6.394;2022-07-23T04:30:44;9.15;;;4.15;;
51921;SDS011;37948;53.260;6.394;2022-07-23T04:33:09;14.35;;;5.45;;
51921;SDS011;37948;53.260;6.394;2022-07-23T04:35:35;9.07;;;4.35;;
51921;SDS011;37948;53.260;6.394;2022-07-23T04:38:02;5.38;;;4.15;;
51921;SDS011;37948;53.260;6.394;2022-07-23T04:40:28;7.72;;;4.18;;
51921;SDS011;37948;53.260;6.394;2022-07-23T04:42:54;5.03;;;4.03;;
51921;SDS011;37948;53.260;6.394;2022-07-23T04:45:19;4.25;;;3.65;;
51921;SDS011;37948;53.260;6.394;2022-07-23T04:47:45;8.02;;;4.10;;
51921;SDS011;37948;53.260;6.394;2022-07-23T04:50:11;12.15;;;4.88;;
51921;SDS011;37948;53.260;6.394;2022-07-23T04:52:37;4.78;;;3.28;;
51921;SDS011;37948;53.260;6.394;2022-07-23T04:55:02;6.75;;;3.85;;
51921;SDS011;37948;53.260;6.394;2022-07-23T04:57:28;4.93;;;3.63;;
51921;SDS011;37948;53.260;6.394;2022-07-23T04:59:54;4.95;;;3.25;;
51921;SDS011;37948;53.260;6.394;2022-07-23T05:02:19;6.25;;;4.53;;
51921;SDS011;37948;53.260;6.394;2022-07-23T05:04:45;4.45;;;3.70;;
51921;SDS011;37948;53.260;6.394;2022-07-23T05:07:11;8.65;;;4.00;;
51921;SDS011;37948;53.260;6.394;2022-07-23T05:09:36;5.22;;;3.50;;
51921;SDS011;37948;53.260;6.394;2022-07-23T05:12:02;6.38;;;3.47;;
51921;SDS011;37948;53.260;6.394;2022-07-23T05:14:28;6.38;;;4.03;;
51921;SDS011;37948;53.260;6.394;2022-07-23T05:16:53;4.63;;;3.45;;
51921;SDS011;37948;53.260;6.394;2022-07-23T05:19:19;10.48;;;3.35;;
51921;SDS011;37948;53.260;6.394;2022-07-23T05:21:45;6.85;;;3.35;;
51921;SDS011;37948;53.260;6.394;2022-07-23T05:24:10;5.65;;;3.38;;
51921;SDS011;37948;53.260;6.394;2022-07-23T05:26:36;4.60;;;3.20;;
51921;SDS011;37948;53.260;6.394;2022-07-23T05:29:01;9.07;;;3.25;;
51921;SDS011;37948;53.260;6.394;2022-07-23T05:31:27;4.25;;;3.88;;
51921;SDS011;37948;53.260;6.394;2022-07-23T05:33:53;7.88;;;4.07;;
51921;SDS011;37948;53.260;6.394;2022-07-23T05:36:18;4.78;;;3.38;;
51921;SDS011;37948;53.260;6.394;2022-07-23T05:38:44;3.45;;;3.13;;
51921;SDS011;37948;53.260;6.394;2022-07-23T05:41:09;5.35;;;3.58;;
51921;SDS011;37948;53.260;6.394;2022-07-23T05:43:35;3.60;;;3.30;;
51921;SDS011;37948;53.260;6.394;2022-07-23T05:46:00;6.57;;;2.92;;
51921;SDS011;37948;53.260;6.394;2022-07-23T05:48:26;5.10;;;3.28;;
51921;SDS011;37948;53.260;6.394;2022-07-23T05:50:51;3.47;;;2.85;;
51921;SDS011;37948;53.260;6.394;2022-07-23T05:53:17;4.35;;;3.13;;
51921;SDS011;37948;53.260;6.394;2022-07-23T05:55:43;4.90;;;3.10;;
51921;SDS011;37948;53.260;6.394;2022-07-23T05:58:08;3.15;;;2.50;;
51921;SDS011;37948;53.260;6.394;2022-07-23T06:00:34;5.40;;;2.92;;
51921;SDS011;37948;53.260;6.394;2022-07-23T06:02:59;4.80;;;3.38;;
51921;SDS011;37948;53.260;6.394;2022-07-23T06:05:25;7.45;;;3.25;;
51921;SDS011;37948;53.260;6.394;2022-07-23T06:07:51;6.72;;;2.90;;
51921;SDS011;37948;53.260;6.394;2022-07-23T06:10:17;4.60;;;3.30;;
51921;SDS011;37948;53.260;6.394;2022-07-23T06:12:43;3.00;;;2.72;;
51921;SDS011;37948;53.260;6.394;2022-07-23T06:15:09;2.85;;;2.50;;
51921;SDS011;37948;53.260;6.394;2022-07-23T06:17:35;2.25;;;2.00;;
51921;SDS011;37948;53.260;6.394;2022-07-23T06:20:04;3.30;;;1.92;;
51921;SDS011;37948;53.260;6.394;2022-07-23T06:22:33;2.40;;;2.00;;
51921;SDS011;37948;53.260;6.394;2022-07-23T06:24:59;3.05;;;1.90;;
51921;SDS011;37948;53.260;6.394;2022-07-23T06:27:25;3.47;;;1.95;;
51921;SDS011;37948;53.260;6.394;2022-07-23T06:29:51;3.78;;;1.55;;
51921;SDS011;37948;53.260;6.394;2022-07-23T06:32:16;3.25;;;1.40;;
51921;SDS011;37948;53.260;6.394;2022-07-23T06:34:42;7.38;;;2.38;;
51921;SDS011;37948;53.260;6.394;2022-07-23T06:37:07;1.77;;;1.13;;
51921;SDS011;37948;53.260;6.394;2022-07-23T06:39:33;3.30;;;0.90;;
51921;SDS011;37948;53.260;6.394;2022-07-23T06:41:58;1.27;;;0.80;;
51921;SDS011;37948;53.260;6.394;2022-07-23T06:44:25;1.35;;;1.00;;
51921;SDS011;37948;53.260;6.394;2022-07-23T06:46:51;0.70;;;0.70;;
51921;SDS011;37948;53.260;6.394;2022-07-23T06:49:17;1.70;;;0.60;;
51921;SDS011;37948;53.260;6.394;2022-07-23T06:51:42;5.22;;;0.63;;
51921;SDS011;37948;53.260;6.394;2022-07-23T06:54:08;0.63;;;0.30;;
51921;SDS011;37948;53.260;6.394;2022-07-23T06:56:33;1.65;;;0.22;;
51921;SDS011;37948;53.260;6.394;2022-07-23T06:58:59;0.65;;;0.30;;
51921;SDS011;37948;53.260;6.394;2022-07-23T07:01:24;0.40;;;0.40;;
51921;SDS011;37948;53.260;6.394;2022-07-23T07:03:50;0.95;;;0.20;;
51921;SDS011;37948;53.260;6.394;2022-07-23T07:06:16;2.22;;;0.45;;
51921;SDS011;37948;53.260;6.394;2022-07-23T07:08:42;0.50;;;0.20;;
51921;SDS011;37948;53.260;6.394;2022-07-23T07:11:08;1.30;;;0.30;;
51921;SDS011;37948;53.260;6.394;2022-07-23T07:13:35;1.13;;;0.40;;
51921;SDS011;37948;53.260;6.394;2022-07-23T07:16:01;0.82;;;0.40;;
51921;SDS011;37948;53.260;6.394;2022-07-23T07:18:27;1.52;;;0.75;;
51921;SDS011;37948;53.260;6.394;2022-07-23T07:20:52;4.88;;;0.65;;
51921;SDS011;37948;53.260;6.394;2022-07-23T07:23:18;2.17;;;0.40;;
51921;SDS011;37948;53.260;6.394;2022-07-23T07:25:45;2.28;;;0.50;;
51921;SDS011;37948;53.260;6.394;2022-07-23T07:28:11;0.57;;;0.40;;
51921;SDS011;37948;53.260;6.394;2022-07-23T07:30:36;1.00;;;0.40;;
51921;SDS011;37948;53.260;6.394;2022-07-23T07:33:02;0.20;;;0.20;;
51921;SDS011;37948;53.260;6.394;2022-07-23T07:35:27;0.68;;;0.47;;
51921;SDS011;37948;53.260;6.394;2022-07-23T07:37:53;1.23;;;0.30;;
51921;SDS011;37948;53.260;6.394;2022-07-23T07:40:19;0.63;;;0.20;;
51921;SDS011;37948;53.260;6.394;2022-07-23T07:42:49;1.40;;;0.35;;
51921;SDS011;37948;53.260;6.394;2022-07-23T07:45:16;0.77;;;0.20;;
51921;SDS011;37948;53.260;6.394;2022-07-23T07:47:44;0.85;;;0.35;;
51921;SDS011;37948;53.260;6.394;2022-07-23T07:50:10;1.65;;;0.40;;
51921;SDS011;37948;53.260;6.394;2022-07-23T07:52:35;0.32;;;0.25;;
51921;SDS011;37948;53.260;6.394;2022-07-23T07:55:05;1.15;;;0.43;;
51921;SDS011;37948;53.260;6.394;2022-07-23T07:57:32;3.10;;;0.40;;
51921;SDS011;37948;53.260;6.394;2022-07-23T07:59:58;3.78;;;0.40;;
51921;SDS011;37948;53.260;6.394;2022-07-23T08:02:24;5.35;;;0.40;;
51921;SDS011;37948;53.260;6.394;2022-07-23T08:04:49;1.08;;;0.43;;
51921;SDS011;37948;53.260;6.394;2022-07-23T08:07:15;1.70;;;0.73;;
51921;SDS011;37948;53.260;6.394;2022-07-23T08:09:41;1.50;;;0.40;;
51921;SDS011;37948;53.260;6.394;2022-07-23T08:12:07;1.27;;;0.55;;
51921;SDS011;37948;53.260;6.394;2022-07-23T08:14:33;5.43;;;0.30;;
51921;SDS011;37948;53.260;6.394;2022-07-23T08:16:58;1.65;;;0.60;;
51921;SDS011;37948;53.260;6.394;2022-07-23T08:19:24;0.65;;;0.43;;
51921;SDS011;37948;53.260;6.394;2022-07-23T08:21:49;2.72;;;0.40;;
51921;SDS011;37948;53.260;6.394;2022-07-23T08:24:15;3.20;;;0.38;;
51921;SDS011;37948;53.260;6.394;2022-07-23T08:26:40;1.05;;;0.40;;
51921;SDS011;37948;53.260;6.394;2022-07-23T08:29:06;0.30;;;0.30;;
51921;SDS011;37948;53.260;6.394;2022-07-23T08:31:32;0.95;;;0.57;;
51921;SDS011;37948;53.260;6.394;2022-07-23T08:33:58;1.52;;;0.50;;
51921;SDS011;37948;53.260;6.394;2022-07-23T08:36:25;2.20;;;0.40;;
51921;SDS011;37948;53.260;6.394;2022-07-23T08:38:52;3.58;;;0.88;;
51921;SDS011;37948;53.260;6.394;2022-07-23T08:41:19;1.13;;;0.30;;
51921;SDS011;37948;53.260;6.394;2022-07-23T08:43:45;3.78;;;0.40;;
51921;SDS011;37948;53.260;6.394;2022-07-23T08:46:11;2.38;;;0.65;;
51921;SDS011;37948;53.260;6.394;2022-07-23T08:48:38;0.30;;;0.30;;
51921;SDS011;37948;53.260;6.394;2022-07-23T08:51:05;2.28;;;0.52;;
51921;SDS011;37948;53.260;6.394;2022-07-23T08:53:32;5.63;;;1.15;;
51921;SDS011;37948;53.260;6.394;2022-07-23T08:56:01;1.45;;;0.43;;
51921;SDS011;37948;53.260;6.394;2022-07-23T08:58:28;0.50;;;0.22;;
51921;SDS011;37948;53.260;6.394;2022-07-23T09:00:55;3.17;;;0.50;;
51921;SDS011;37948;53.260;6.394;2022-07-23T09:03:25;5.50;;;0.60;;
51921;SDS011;37948;53.260;6.394;2022-07-23T09:05:52;2.20;;;0.60;;
51921;SDS011;37948;53.260;6.394;2022-07-23T09:08:22;2.08;;;0.30;;
51921;SDS011;37948;53.260;6.394;2022-07-23T09:11:08;9.52;;;0.57;;
51921;SDS011;37948;53.260;6.394;2022-07-23T09:13:51;1.17;;;0.40;;
51921;SDS011;37948;53.260;6.394;2022-07-23T09:16:28;1.85;;;0.43;;
51921;SDS011;37948;53.260;6.394;2022-07-23T09:18:56;1.08;;;0.28;;
51921;SDS011;37948;53.260;6.394;2022-07-23T09:31:33;2.85;;;0.57;;
51921;SDS011;37948;53.260;6.394;2022-07-23T09:34:09;7.00;;;1.10;;
51921;SDS011;37948;53.260;6.394;2022-07-23T09:36:36;12.05;;;1.30;;
51921;SDS011;37948;53.260;6.394;2022-07-23T09:39:02;5.60;;;0.57;;
51921;SDS011;37948;53.260;6.394;2022-07-23T09:41:35;2.30;;;0.50;;
51921;SDS011;37948;53.260;6.394;2022-07-23T09:44:09;1.00;;;0.52;;
51921;SDS011;37948;53.260;6.394;2022-07-23T09:46:41;4.75;;;0.50;;
51921;SDS011;37948;53.260;6.394;2022-07-23T09:49:12;2.92;;;0.68;;
51921;SDS011;37948;53.260;6.394;2022-07-23T09:51:46;2.63;;;0.60;;
51921;SDS011;37948;53.260;6.394;2022-07-23T09:54:22;7.00;;;0.60;;
51921;SDS011;37948;53.260;6.394;2022-07-23T09:59:32;3.97;;;0.57;;
51921;SDS011;37948;53.260;6.394;2022-07-23T10:02:00;2.22;;;0.75;;
51921;SDS011;37948;53.260;6.394;2022-07-23T10:04:29;1.27;;;0.70;;
51921;SDS011;37948;53.260;6.394;2022-07-23T10:06:56;0.30;;;0.30;;
51921;SDS011;37948;53.260;6.394;2022-07-23T10:09:28;2.10;;;0.55;;
51921;SDS011;37948;53.260;6.394;2022-07-23T10:11:56;2.53;;;0.65;;
51921;SDS011;37948;53.260;6.394;2022-07-23T10:14:33;2.92;;;0.60;;
51921;SDS011;37948;53.260;6.394;2022-07-23T10:17:02;4.32;;;0.95;;
51921;SDS011;37948;53.260;6.394;2022-07-23T10:19:28;4.22;;;0.77;;
51921;SDS011;37948;53.260;6.394;2022-07-23T10:21:57;3.63;;;0.70;;
51921;SDS011;37948;53.260;6.394;2022-07-23T10:30:00;2.10;;;0.63;;
51921;SDS011;37948;53.260;6.394;2022-07-23T10:35:53;3.92;;;0.88;;
51921;SDS011;37948;53.260;6.394;2022-07-23T10:38:35;1.30;;;0.93;;
51921;SDS011;37948;53.260;6.394;2022-07-23T10:41:07;2.83;;;1.08;;
51921;SDS011;37948;53.260;6.394;2022-07-23T10:43:33;3.70;;;0.77;;
51921;SDS011;37948;53.260;6.394;2022-07-23T10:49:11;1.02;;;0.50;;
51921;SDS011;37948;53.260;6.394;2022-07-23T10:54:34;2.78;;;0.85;;
51921;SDS011;37948;53.260;6.394;2022-07-23T10:59:26;4.72;;;0.85;;
51921;SDS011;37948;53.260;6.394;2022-07-23T11:01:51;1.80;;;1.23;;
51921;SDS011;37948;53.260;6.394;2022-07-23T11:04:17;3.17;;;0.90;;
51921;SDS011;37948;53.260;6.394;2022-07-23T11:09:27;1.38;;;0.95;;
51921;SDS011;37948;53.260;6.394;2022-07-23T11:14:57;1.47;;;0.53;;
51921;SDS011;37948;53.260;6.394;2022-07-23T11:17:37;2.60;;;0.90;;
51921;SDS011;37948;53.260;6.394;2022-07-23T11:22:35;2.85;;;0.88;;
51921;SDS011;37948;53.260;6.394;2022-07-23T11:25:01;1.05;;;0.68;;
51921;SDS011;37948;53.260;6.394;2022-07-23T11:27:40;4.40;;;0.88;;
51921;SDS011;37948;53.260;6.394;2022-07-23T11:30:09;1.27;;;0.55;;
51921;SDS011;37948;53.260;6.394;2022-07-23T11:35:33;1.42;;;0.68;;
51921;SDS011;37948;53.260;6.394;2022-07-23T11:38:05;3.17;;;0.80;;
51921;SDS011;37948;53.260;6.394;2022-07-23T11:40:32;2.65;;;0.75;;
51921;SDS011;37948;53.260;6.394;2022-07-23T11:43:00;1.05;;;0.80;;
51921;SDS011;37948;53.260;6.394;2022-07-23T11:45:31;1.75;;;1.00;;
51921;SDS011;37948;53.260;6.394;2022-07-23T11:47:59;0.57;;;0.57;;
51921;SDS011;37948;53.260;6.394;2022-07-23T11:50:25;5.75;;;0.77;;
51921;SDS011;37948;53.260;6.394;2022-07-23T11:52:51;2.35;;;0.50;;
51921;SDS011;37948;53.260;6.394;2022-07-23T11:55:18;2.85;;;0.65;;
51921;SDS011;37948;53.260;6.394;2022-07-23T11:57:44;1.10;;;0.32;;
51921;SDS011;37948;53.260;6.394;2022-07-23T12:02:41;3.95;;;0.77;;
51921;SDS011;37948;53.260;6.394;2022-07-23T12:07:43;3.42;;;0.77;;
51921;SDS011;37948;53.260;6.394;2022-07-23T12:10:19;2.78;;;0.80;;
51921;SDS011;37948;53.260;6.394;2022-07-23T12:13:02;1.77;;;0.77;;
51921;SDS011;37948;53.260;6.394;2022-07-23T12:15:30;1.38;;;1.17;;
51921;SDS011;37948;53.260;6.394;2022-07-23T12:18:04;2.90;;;0.68;;
51921;SDS011;37948;53.260;6.394;2022-07-23T12:20:31;0.88;;;0.50;;
51921;SDS011;37948;53.260;6.394;2022-07-23T12:23:00;1.92;;;0.75;;
51921;SDS011;37948;53.260;6.394;2022-07-23T12:25:28;1.55;;;0.60;;
51921;SDS011;37948;53.260;6.394;2022-07-23T12:28:15;0.50;;;0.32;;
51921;SDS011;37948;53.260;6.394;2022-07-23T12:30:44;1.40;;;0.52;;
51921;SDS011;37948;53.260;6.394;2022-07-23T12:33:12;0.50;;;0.30;;
51921;SDS011;37948;53.260;6.394;2022-07-23T12:35:44;1.05;;;0.65;;
51921;SDS011;37948;53.260;6.394;2022-07-23T12:38:13;1.85;;;0.50;;
51921;SDS011;37948;53.260;6.394;2022-07-23T12:40:46;0.53;;;0.50;;
51921;SDS011;37948;53.260;6.394;2022-07-23T12:50:56;2.33;;;0.50;;
51921;SDS011;37948;53.260;6.394;2022-07-23T12:53:26;3.05;;;0.82;;
51921;SDS011;37948;53.260;6.394;2022-07-23T12:55:58;3.03;;;0.80;;
51921;SDS011;37948;53.260;6.394;2022-07-23T12:58:24;3.75;;;0.65;;
51921;SDS011;37948;53.260;6.394;2022-07-23T13:03:26;3.50;;;0.95;;
51921;SDS011;37948;53.260;6.394;2022-07-23T13:06:00;3.40;;;0.70;;
51921;SDS011;37948;53.260;6.394;2022-07-23T13:08:29;2.40;;;0.50;;
51921;SDS011;37948;53.260;6.394;2022-07-23T13:10:55;6.60;;;1.02;;
51921;SDS011;37948;53.260;6.394;2022-07-23T13:13:26;2.92;;;1.05;;
51921;SDS011;37948;53.260;6.394;2022-07-23T13:15:53;0.70;;;0.40;;
51921;SDS011;37948;53.260;6.394;2022-07-23T13:18:19;2.88;;;0.70;;
51921;SDS011;37948;53.260;6.394;2022-07-23T13:20:46;4.70;;;1.20;;
51921;SDS011;37948;53.260;6.394;2022-07-23T13:23:12;14.07;;;1.02;;
51921;SDS011;37948;53.260;6.394;2022-07-23T13:25:38;4.57;;;1.20;;
51921;SDS011;37948;53.260;6.394;2022-07-23T13:28:04;6.57;;;1.40;;
51921;SDS011;37948;53.260;6.394;2022-07-23T13:30:29;3.08;;;0.70;;
51921;SDS011;37948;53.260;6.394;2022-07-23T13:32:55;3.45;;;1.00;;
51921;SDS011;37948;53.260;6.394;2022-07-23T13:35:21;0.95;;;0.70;;
51921;SDS011;37948;53.260;6.394;2022-07-23T13:37:47;1.85;;;0.70;;
51921;SDS011;37948;53.260;6.394;2022-07-23T13:40:12;1.00;;;0.60;;
51921;SDS011;37948;53.260;6.394;2022-07-23T13:42:38;3.15;;;0.60;;
51921;SDS011;37948;53.260;6.394;2022-07-23T13:45:04;3.55;;;0.77;;
51921;SDS011;37948;53.260;6.394;2022-07-23T13:47:30;1.50;;;0.50;;
51921;SDS011;37948;53.260;6.394;2022-07-23T13:49:56;5.78;;;0.70;;
51921;SDS011;37948;53.260;6.394;2022-07-23T13:52:21;2.10;;;0.70;;
51921;SDS011;37948;53.260;6.394;2022-07-23T13:54:47;1.80;;;0.60;;
51921;SDS011;37948;53.260;6.394;2022-07-23T13:57:13;2.58;;;0.75;;
51921;SDS011;37948;53.260;6.394;2022-07-23T13:59:38;3.63;;;0.73;;
51921;SDS011;37948;53.260;6.394;2022-07-23T14:02:04;1.58;;;0.70;;
51921;SDS011;37948;53.260;6.394;2022-07-23T14:04:30;1.58;;;1.00;;
51921;SDS011;37948;53.260;6.394;2022-07-23T14:06:56;2.45;;;0.50;;
51921;SDS011;37948;53.260;6.394;2022-07-23T14:09:22;0.93;;;0.63;;
51921;SDS011;37948;53.260;6.394;2022-07-23T14:11:48;1.27;;;0.60;;
51921;SDS011;37948;53.260;6.394;2022-07-23T14:14:15;2.35;;;0.85;;
51921;SDS011;37948;53.260;6.394;2022-07-23T14:16:41;2.55;;;0.57;;
51921;SDS011;37948;53.260;6.394;2022-07-23T14:19:07;2.72;;;0.70;;
51921;SDS011;37948;53.260;6.394;2022-07-23T14:21:33;1.33;;;0.70;;
51921;SDS011;37948;53.260;6.394;2022-07-23T14:23:58;3.22;;;0.68;;
51921;SDS011;37948;53.260;6.394;2022-07-23T14:26:24;3.10;;;0.57;;
51921;SDS011;37948;53.260;6.394;2022-07-23T14:28:49;1.48;;;0.75;;
51921;SDS011;37948;53.260;6.394;2022-07-23T14:31:15;1.13;;;0.60;;
51921;SDS011;37948;53.260;6.394;2022-07-23T14:33:41;3.00;;;1.10;;
51921;SDS011;37948;53.260;6.394;2022-07-23T14:36:06;1.17;;;0.80;;
51921;SDS011;37948;53.260;6.394;2022-07-23T14:38:32;1.60;;;0.60;;
51921;SDS011;37948;53.260;6.394;2022-07-23T14:40:58;2.33;;;0.68;;
51921;SDS011;37948;53.260;6.394;2022-07-23T14:43:23;1.52;;;0.68;;
51921;SDS011;37948;53.260;6.394;2022-07-23T14:45:49;1.63;;;0.82;;
51921;SDS011;37948;53.260;6.394;2022-07-23T14:48:14;3.95;;;0.80;;
51921;SDS011;37948;53.260;6.394;2022-07-23T14:50:40;1.50;;;0.80;;
51921;SDS011;37948;53.260;6.394;2022-07-23T14:53:06;1.67;;;0.70;;
51921;SDS011;37948;53.260;6.394;2022-07-23T14:55:32;4.65;;;0.80;;
51921;SDS011;37948;53.260;6.394;2022-07-23T14:57:58;3.97;;;0.57;;
51921;SDS011;37948;53.260;6.394;2022-07-23T15:00:24;2.83;;;0.90;;
51921;SDS011;37948;53.260;6.394;2022-07-23T15:02:50;4.10;;;0.80;;
51921;SDS011;37948;53.260;6.394;2022-07-23T15:05:16;1.45;;;0.90;;
51921;SDS011;37948;53.260;6.394;2022-07-23T15:07:42;2.08;;;0.70;;
51921;SDS011;37948;53.260;6.394;2022-07-23T15:10:08;1.65;;;0.70;;
51921;SDS011;37948;53.260;6.394;2022-07-23T15:12:33;3.75;;;0.80;;
51921;SDS011;37948;53.260;6.394;2022-07-23T15:14:59;2.60;;;0.90;;
51921;SDS011;37948;53.260;6.394;2022-07-23T15:17:24;1.40;;;0.88;;
51921;SDS011;37948;53.260;6.394;2022-07-23T15:19:50;4.32;;;1.08;;
51921;SDS011;37948;53.260;6.394;2022-07-23T15:22:16;1.58;;;0.77;;
51921;SDS011;37948;53.260;6.394;2022-07-23T15:24:42;3.17;;;0.57;;
51921;SDS011;37948;53.260;6.394;2022-07-23T15:27:08;0.60;;;0.60;;
51921;SDS011;37948;53.260;6.394;2022-07-23T15:29:33;2.78;;;0.90;;
51921;SDS011;37948;53.260;6.394;2022-07-23T15:31:59;4.03;;;0.68;;
51921;SDS011;37948;53.260;6.394;2022-07-23T15:34:25;1.10;;;0.60;;
51921;SDS011;37948;53.260;6.394;2022-07-23T15:36:51;2.65;;;1.23;;
51921;SDS011;37948;53.260;6.394;2022-07-23T15:39:17;0.93;;;0.60;;
51921;SDS011;37948;53.260;6.394;2022-07-23T15:41:43;1.20;;;0.73;;